EDT,Max TemperatureF,Mean TemperatureF,Min TemperatureF,Max Dew PointF,MeanDew PointF,Min DewpointF,Max Humidity, Mean Humidity, Min Humidity, Max Sea Level PressureIn, Mean Sea Level PressureIn, Min Sea Level PressureIn, Max VisibilityMiles, Mean VisibilityMiles, Min VisibilityMiles, Max Wind SpeedMPH, Mean Wind SpeedMPH, Max Gust SpeedMPH,PrecipitationIn, CloudCover, Events, WindDirDegrees
2013-10-1,81,67,53,61,56,50,93,69,45,30.06,30.01,29.96,10,10,8,13,4,16,0.00,2,,279
2013-10-2,84,71,57,62,60,54,97,70,43,30.06,30.02,29.99,10,9,6,16,6,20,0.00,0,,273
2013-10-3,80,69,58,66,61,56,97,72,47,30.13,30.09,30.05,10,8,5,9,4,18,0.00,0,,149
2013-10-4,87,74,61,67,63,61,100,74,48,30.10,30.06,30.01,10,4,0,10,3,21,0.00,1,Fog,201
2013-10-5,86,76,65,68,65,63,100,76,51,30.09,30.05,30.01,10,6,2,17,5,21,0.00,3,,165
2013-10-6,83,75,67,69,66,64,93,78,62,30.07,30.03,29.97,10,5,2,15,7,18,0.00,6,,125
2013-10-7,82,68,54,72,64,47,93,83,72,30.04,29.90,29.79,10,8,2,30,12,38,0.39,7,Rain,201
2013-10-8,68,58,47,49,46,43,93,68,42,30.31,30.23,30.06,10,10,10,20,6,24,0.00,0,,353
2013-10-9,63,58,53,50,47,43,77,67,56,30.35,30.30,30.24,10,10,10,23,15,31,T,2,Rain,43
2013-10-10,62,58,54,58,54,50,93,87,80,30.24,30.12,29.99,10,8,2,24,17,32,0.57,8,Rain,36
2013-10-11,65,62,59,61,59,57,93,89,84,30.03,29.98,29.94,10,6,2,24,18,32,0.93,8,Rain,47
2013-10-12,73,67,61,59,55,48,84,67,49,30.21,30.11,30.01,10,10,5,25,18,32,0.01,7,Rain,50
2013-10-13,70,63,56,57,52,48,90,69,47,30.37,30.30,30.21,10,10,10,22,14,30,0.00,6,,62
2013-10-14,69,59,48,53,50,46,93,72,51,30.36,30.31,30.25,10,10,10,14,4,16,0.00,3,,31
2013-10-15,74,61,47,54,48,40,100,65,29,30.26,30.19,30.12,10,10,10,12,5,16,0.00,1,,32
2013-10-16,69,63,57,60,56,50,93,78,63,30.11,30.03,29.94,10,10,6,9,3,13,0.00,5,,105
2013-10-17,72,67,61,64,61,59,93,81,68,29.93,29.86,29.75,10,8,4,25,6,32,T,6,Rain,180
2013-10-18,67,58,48,61,46,42,93,68,42,30.03,29.93,29.76,10,10,10,25,8,35,0.00,1,,287
2013-10-19,66,55,44,55,49,43,93,71,48,30.02,29.90,29.79,10,9,5,18,6,24,0.02,4,Rain,197
2013-10-20,64,54,44,49,38,34,86,60,34,30.11,30.00,29.84,10,10,10,21,9,26,0.00,0,,297
2013-10-21,67,53,39,48,42,38,96,67,37,30.18,30.10,30.00,10,10,10,20,7,24,0.00,0,,167
2013-10-22,67,55,42,50,45,34,93,73,52,29.98,29.87,29.82,10,10,9,15,5,20,T,2,Rain,276
2013-10-23,59,51,42,38,35,30,76,58,40,29.84,29.75,29.64,10,10,10,18,8,29,T,5,Rain,336
2013-10-24,54,46,37,35,30,24,82,59,35,30.11,29.99,29.85,10,10,10,23,10,26,0.00,3,,283
2013-10-25,56,45,34,33,31,29,82,62,41,30.30,30.20,30.11,10,10,10,22,8,26,0.00,1,,276
2013-10-26,57,45,33,32,30,28,82,59,35,30.29,30.13,29.94,10,10,10,26,8,36,0.00,1,,226
2013-10-27,60,49,38,34,32,29,70,51,32,30.17,30.04,29.94,10,10,10,18,7,23,0.00,1,,287
2013-10-28,64,49,33,39,35,31,96,66,36,30.30,30.23,30.17,10,10,10,9,2,12,0.00,0,,314
2013-10-29,63,51,38,46,39,34,86,65,43,30.40,30.36,30.31,10,10,10,13,5,17,0.00,0,,47
2013-10-30,58,51,43,54,50,42,96,88,80,30.35,30.26,30.20,10,8,2,8,3,10,0.03,6,Rain,134
2013-10-31,71,59,46,61,52,46,100,81,61,30.22,30.11,29.82,10,4,0,20,7,29,0.02,6,Fog-Rain,139